Terminal Aerodrome Forecast
Issued by NWS

Home | Current Version | Previous Version | Text Only | Print | Product List | Glossary On
Versions: 1 2 3 4 5 6 7 8 9 10 11 12 13 14 15 16 17 18 19
000
FTUS41 KGYX 122024 AAB
TAFMHT
TAF AMD
KMHT 122024Z 1220/1318 01007KT 3SM -FZRA OVC004
     FM122200 11007KT 3SM RA BR OVC008
     FM130200 26005KT P6SM BKN035
     FM131500 29018G30KT P6SM SCT035=

USA.gov is the U.S. government's official web portal to all federal, state and local government web resources and services.